Time;durP1;ratioP1;P1;durP2;ratioP2;P2;SDS_P1;SDS_P2;PMS_P1;PMS_P2;Temp;Humidity;BMP_temperature;BMP_pressure;BME280_temperature;BME280_humidity;BME280_pressure;Samples;Min_cycle;Max_cycle;Signal;HPM_P1;HPM_P2
2021/09/29 00:00:07;;;;;;;;;1.50;0.25;;;;;;;;5086807;28;45471;-84
2021/09/29 00:02:32;;;;;;;;;2.00;1.00;;;;;;;;5083362;28;45475;-84
2021/09/29 00:04:58;;;;;;;;;2.50;0.00;;;;;;;;5082832;28;45414;-84
2021/09/29 00:07:23;;;;;;;;;1.33;1.00;;;;;;;;5083065;28;45218;-84
2021/09/29 00:09:48;;;;;;;;;1.50;0.50;;;;;;;;5064440;28;45372;-84
2021/09/29 00:12:13;;;;;;;;;4.00;1.00;;;;;;;;5082698;28;45271;-84
2021/09/29 00:14:39;;;;;;;;;1.00;0.67;;;;;;;;5082965;28;45412;-84
2021/09/29 00:17:04;;;;;;;;;1.67;1.67;;;;;;;;5083011;28;45527;-84
2021/09/29 00:19:29;;;;;;;;;1.00;1.00;;;;;;;;5082593;28;45501;-84
2021/09/29 00:21:54;;;;;;;;;1.00;1.00;;;;;;;;5082216;28;45355;-84
2021/09/29 00:24:20;;;;;;;;;1.00;1.00;;;;;;;;5064170;28;45698;-84
2021/09/29 00:26:45;;;;;;;;;2.75;1.00;;;;;;;;5082377;28;45402;-84
2021/09/29 00:29:10;;;;;;;;;2.00;0.25;;;;;;;;5064074;28;45440;-84
2021/09/29 00:31:37;;;;;;;;;1.00;0.75;;;;;;;;5082603;28;45325;-84
2021/09/29 00:34:14;;;;;;;;;0.50;0.25;;;;;;;;5064162;28;45662;-84
2021/09/29 00:36:41;;;;;;;;;0.75;0.75;;;;;;;;5064253;28;45402;-84
2021/09/29 00:39:07;;;;;;;;;1.00;0.25;;;;;;;;5063927;28;45257;-84
2021/09/29 00:41:33;;;;;;;;;1.00;0.00;;;;;;;;5067319;28;48659;-84
2021/09/29 00:43:58;;;;;;;;;1.50;1.00;;;;;;;;5067619;28;45728;-84
2021/09/29 00:46:24;;;;;;;;;0.50;0.25;;;;;;;;5085341;28;45288;-84
2021/09/29 00:48:49;;;;;;;;;1.25;0.00;;;;;;;;5081962;28;45279;-84
2021/09/29 00:51:14;;;;;;;;;2.67;1.00;;;;;;;;5082228;28;45480;-84
2021/09/29 00:53:40;;;;;;;;;2.00;0.00;;;;;;;;5063854;28;45315;-84
2021/09/29 00:56:06;;;;;;;;;1.75;1.00;;;;;;;;5063718;28;45426;-84
2021/09/29 00:58:31;;;;;;;;;2.00;0.00;;;;;;;;5081961;28;45356;-83
2021/09/29 01:00:56;;;;;;;;;0.00;0.00;;;;;;;;5063668;28;48008;-84
2021/09/29 01:03:22;;;;;;;;;0.50;0.50;;;;;;;;5063491;28;45381;-84
2021/09/29 01:05:50;;;;;;;;;1.00;1.00;;;;;;;;5082017;28;45385;-84
2021/09/29 01:08:18;;;;;;;;;2.00;0.25;;;;;;;;5081570;28;45454;-84
2021/09/29 01:11:01;;;;;;;;;2.00;1.00;;;;;;;;5081145;28;45423;-84
2021/09/29 01:13:35;;;;;;;;;0.00;0.00;;;;;;;;5081718;28;45494;-84
2021/09/29 01:16:02;;;;;;;;;2.00;0.00;;;;;;;;5081804;28;45208;-84
2021/09/29 01:18:32;;;;;;;;;1.75;0.50;;;;;;;;5081820;28;45469;-84
2021/09/29 01:21:08;;;;;;;;;1.75;0.75;;;;;;;;5081547;28;45405;-84
2021/09/29 01:23:45;;;;;;;;;5.50;1.00;;;;;;;;5082530;28;45572;-84
2021/09/29 01:26:18;;;;;;;;;0.00;0.00;;;;;;;;5079814;28;45227;-84
2021/09/29 01:28:50;;;;;;;;;0.50;0.50;;;;;;;;5066683;28;45272;-84
2021/09/29 01:31:17;;;;;;;;;1.00;1.00;;;;;;;;5081572;28;46049;-84
2021/09/29 01:33:43;;;;;;;;;3.00;1.00;;;;;;;;5063458;28;45284;-84
2021/09/29 01:36:08;;;;;;;;;1.75;1.00;;;;;;;;5081713;28;45368;-84
2021/09/29 01:38:34;;;;;;;;;1.25;0.00;;;;;;;;5063028;28;45311;-84
2021/09/29 01:41:00;;;;;;;;;3.00;0.50;;;;;;;;5078020;28;45524;-84
2021/09/29 01:43:28;;;;;;;;;3.33;1.00;;;;;;;;5081536;28;45310;-84
2021/09/29 01:45:53;;;;;;;;;1.75;0.00;;;;;;;;5062861;28;45445;-84
2021/09/29 01:48:19;;;;;;;;;1.75;0.00;;;;;;;;5080095;28;45355;-84
2021/09/29 01:50:45;;;;;;;;;2.00;0.25;;;;;;;;5081113;28;45602;-84
2021/09/29 01:53:10;;;;;;;;;3.00;0.00;;;;;;;;5081311;28;45317;-84
2021/09/29 01:55:36;;;;;;;;;3.25;0.00;;;;;;;;5081084;28;45411;-84
2021/09/29 01:58:02;;;;;;;;;2.25;0.25;;;;;;;;5062766;28;46074;-84
2021/09/29 02:00:27;;;;;;;;;3.00;1.00;;;;;;;;5062769;28;48497;-84
2021/09/29 02:02:56;;;;;;;;;0.00;0.00;;;;;;;;5081402;28;45158;-84
2021/09/29 02:05:29;;;;;;;;;1.00;1.00;;;;;;;;5063075;28;45276;-84
2021/09/29 02:07:55;;;;;;;;;2.50;0.25;;;;;;;;5080441;28;45201;-84
2021/09/29 02:10:20;;;;;;;;;0.25;0.25;;;;;;;;5062640;28;47312;-84
2021/09/29 02:12:45;;;;;;;;;0.00;0.00;;;;;;;;5081801;28;45394;-84
2021/09/29 02:15:10;;;;;;;;;1.00;0.50;;;;;;;;5084857;28;46092;-84
2021/09/29 02:17:35;;;;;;;;;2.00;0.00;;;;;;;;5082214;28;45553;-84
2021/09/29 02:20:01;;;;;;;;;3.00;1.00;;;;;;;;5079959;28;46245;-84
2021/09/29 02:22:26;;;;;;;;;0.00;0.00;;;;;;;;5080640;28;45265;-84
2021/09/29 02:24:51;;;;;;;;;2.00;0.00;;;;;;;;5080152;28;45580;-84
2021/09/29 02:27:16;;;;;;;;;1.00;0.00;;;;;;;;5080444;28;45196;-84
2021/09/29 02:29:42;;;;;;;;;1.00;1.00;;;;;;;;5080739;28;46531;-84
2021/09/29 02:32:07;;;;;;;;;1.75;1.00;;;;;;;;5062463;28;45815;-84
2021/09/29 02:34:32;;;;;;;;;0.75;0.00;;;;;;;;5062360;28;45646;-84
2021/09/29 02:36:57;;;;;;;;;1.50;0.75;;;;;;;;5080455;28;45409;-84
2021/09/29 02:39:23;;;;;;;;;2.75;0.00;;;;;;;;5080529;28;45493;-84
2021/09/29 02:41:48;;;;;;;;;1.00;1.00;;;;;;;;5061857;28;45852;-84
2021/09/29 02:44:13;;;;;;;;;1.33;0.33;;;;;;;;5080741;28;45533;-84
2021/09/29 02:46:40;;;;;;;;;2.00;1.00;;;;;;;;5062317;28;45316;-84
2021/09/29 02:49:06;;;;;;;;;0.25;0.25;;;;;;;;5062114;28;47498;-84
2021/09/29 02:51:31;;;;;;;;;1.25;1.00;;;;;;;;5063341;28;45460;-84
2021/09/29 02:53:57;;;;;;;;;2.00;1.00;;;;;;;;5083504;28;45468;-84
2021/09/29 02:56:22;;;;;;;;;3.00;0.25;;;;;;;;5064996;28;45331;-84
2021/09/29 02:58:47;;;;;;;;;0.00;0.00;;;;;;;;5068679;28;47209;-84
2021/09/29 03:01:13;;;;;;;;;2.00;0.67;;;;;;;;5084893;27;46103;-84
2021/09/29 03:03:38;;;;;;;;;1.00;1.00;;;;;;;;5103017;27;44670;-84
2021/09/29 03:06:03;;;;;;;;;1.33;1.00;;;;;;;;5080116;28;45482;-84
2021/09/29 03:08:28;;;;;;;;;0.67;0.33;;;;;;;;5080548;28;46280;-84
2021/09/29 03:10:54;;;;;;;;;1.00;1.00;;;;;;;;5080130;28;45295;-84
2021/09/29 03:13:19;;;;;;;;;3.00;0.25;;;;;;;;5080511;28;45423;-84
2021/09/29 03:15:44;;;;;;;;;0.00;0.00;;;;;;;;5079869;28;45446;-84
2021/09/29 03:18:09;;;;;;;;;0.67;0.00;;;;;;;;5061872;28;47251;-84
2021/09/29 03:20:35;;;;;;;;;0.00;0.00;;;;;;;;5080212;28;45224;-84
2021/09/29 03:23:00;;;;;;;;;1.00;0.00;;;;;;;;5050156;28;45295;-84
2021/09/29 03:25:26;;;;;;;;;2.67;1.00;;;;;;;;5039115;28;45446;-84
2021/09/29 03:27:51;;;;;;;;;2.00;1.75;;;;;;;;5039544;28;46608;-84
2021/09/29 03:30:17;;;;;;;;;2.25;1.00;;;;;;;;5039637;28;45244;-84
2021/09/29 03:32:42;;;;;;;;;0.00;0.00;;;;;;;;5040320;28;45237;-84
2021/09/29 03:35:08;;;;;;;;;1.00;0.00;;;;;;;;5039864;28;45449;-83
2021/09/29 03:37:33;;;;;;;;;1.00;1.00;;;;;;;;5040086;28;46480;-83
2021/09/29 03:39:58;;;;;;;;;0.50;0.50;;;;;;;;5039990;28;45654;-83
2021/09/29 03:42:25;;;;;;;;;2.00;0.00;;;;;;;;5050792;28;45445;-83
2021/09/29 03:44:50;;;;;;;;;1.50;0.00;;;;;;;;5048437;28;45362;-83
2021/09/29 03:47:15;;;;;;;;;0.00;0.00;;;;;;;;5052939;28;46448;-83
2021/09/29 03:49:40;;;;;;;;;0.00;0.00;;;;;;;;5050300;28;45449;-83
2021/09/29 03:52:06;;;;;;;;;1.00;1.00;;;;;;;;5042735;28;45454;-83
2021/09/29 03:54:31;;;;;;;;;0.00;0.00;;;;;;;;5048454;28;45477;-84
2021/09/29 03:56:58;;;;;;;;;2.00;0.00;;;;;;;;5039039;28;47280;-84
2021/09/29 03:59:24;;;;;;;;;1.25;0.00;;;;;;;;5040194;28;45325;-83
2021/09/29 04:01:49;;;;;;;;;0.75;0.75;;;;;;;;5038547;28;45249;-84
2021/09/29 04:04:14;;;;;;;;;3.00;0.75;;;;;;;;5039396;28;45524;-84
2021/09/29 04:06:39;;;;;;;;;1.00;0.50;;;;;;;;5041075;28;45366;-84
2021/09/29 04:09:05;;;;;;;;;1.50;0.00;;;;;;;;5041754;28;45157;-83
2021/09/29 04:11:30;;;;;;;;;0.67;0.00;;;;;;;;5044193;28;44876;-84
2021/09/29 04:13:55;;;;;;;;;1.75;0.50;;;;;;;;5040053;28;45582;-83
2021/09/29 04:16:21;;;;;;;;;0.75;0.00;;;;;;;;5041886;28;47608;-84
2021/09/29 04:18:46;;;;;;;;;0.75;0.75;;;;;;;;5041990;28;45833;-83
2021/09/29 04:21:12;;;;;;;;;1.00;0.00;;;;;;;;5053070;28;45401;-84
2021/09/29 04:23:38;;;;;;;;;2.00;0.00;;;;;;;;5069549;28;45800;-83
2021/09/29 04:26:03;;;;;;;;;2.00;0.00;;;;;;;;5070597;28;46967;-83
2021/09/29 04:28:29;;;;;;;;;1.25;1.00;;;;;;;;5088590;28;45458;-83
2021/09/29 04:30:54;;;;;;;;;0.00;0.00;;;;;;;;5090107;28;45270;-84
2021/09/29 04:33:19;;;;;;;;;0.00;0.00;;;;;;;;5067459;28;45723;-83
2021/09/29 04:35:44;;;;;;;;;0.00;0.00;;;;;;;;5064005;28;47098;-83
2021/09/29 04:38:10;;;;;;;;;1.00;0.00;;;;;;;;5084156;28;45477;-83
2021/09/29 04:40:35;;;;;;;;;1.75;0.00;;;;;;;;5086350;28;45272;-84
2021/09/29 04:43:00;;;;;;;;;0.00;0.00;;;;;;;;5084011;28;45591;-84
2021/09/29 04:45:26;;;;;;;;;0.33;0.33;;;;;;;;5084186;28;46405;-84
2021/09/29 04:47:51;;;;;;;;;0.00;0.00;;;;;;;;5065177;28;45801;-84
2021/09/29 04:50:16;;;;;;;;;3.00;0.00;;;;;;;;5065767;28;45328;-85
2021/09/29 04:52:41;;;;;;;;;0.00;0.00;;;;;;;;5058791;28;45844;-84
2021/09/29 04:55:07;;;;;;;;;2.00;0.50;;;;;;;;5083869;28;45394;-84
2021/09/29 04:57:32;;;;;;;;;0.75;0.75;;;;;;;;5065797;28;45501;-84
2021/09/29 04:59:58;;;;;;;;;1.50;0.00;;;;;;;;5065031;28;45470;-84
2021/09/29 05:02:23;;;;;;;;;0.00;0.00;;;;;;;;5082768;28;45355;-85
2021/09/29 05:04:49;;;;;;;;;0.00;0.00;;;;;;;;5052327;28;47384;-84
2021/09/29 05:07:15;;;;;;;;;1.25;0.00;;;;;;;;5083128;28;45383;-83
2021/09/29 05:09:41;;;;;;;;;0.25;0.00;;;;;;;;5065483;28;45319;-84
2021/09/29 05:12:15;;;;;;;;;0.00;0.00;;;;;;;;5056453;28;45218;-84
2021/09/29 05:14:40;;;;;;;;;2.00;0.00;;;;;;;;5064613;28;47310;-84
2021/09/29 05:17:05;;;;;;;;;0.00;0.00;;;;;;;;5062316;28;45443;-84
2021/09/29 05:19:31;;;;;;;;;2.75;0.00;;;;;;;;5080891;28;45453;-85
2021/09/29 05:21:56;;;;;;;;;1.00;0.00;;;;;;;;5056727;28;45483;-84
2021/09/29 05:24:21;;;;;;;;;0.00;0.00;;;;;;;;5075595;28;45349;-85
2021/09/29 05:26:47;;;;;;;;;0.00;0.00;;;;;;;;5062371;28;45358;-84
2021/09/29 05:29:12;;;;;;;;;0.00;0.00;;;;;;;;5064746;28;45634;-84
2021/09/29 05:31:37;;;;;;;;;2.50;0.00;;;;;;;;5081764;28;45311;-84
2021/09/29 05:34:02;;;;;;;;;2.00;0.67;;;;;;;;5081107;28;45595;-84
2021/09/29 05:36:28;;;;;;;;;0.00;0.00;;;;;;;;5061355;28;45453;-85
2021/09/29 05:38:53;;;;;;;;;0.00;0.00;;;;;;;;5081570;28;45453;-83
2021/09/29 05:41:18;;;;;;;;;0.00;0.00;;;;;;;;5079162;27;45292;-88
2021/09/29 05:43:43;;;;;;;;;1.00;0.00;;;;;;;;5078305;28;47024;-85
2021/09/29 05:46:09;;;;;;;;;1.50;0.00;;;;;;;;5062889;28;45443;-87
2021/09/29 05:48:34;;;;;;;;;0.00;0.00;;;;;;;;5065970;28;45264;-87
2021/09/29 05:51:00;;;;;;;;;2.00;1.00;;;;;;;;5085291;28;45444;-87
2021/09/29 05:53:25;;;;;;;;;0.50;0.00;;;;;;;;5082871;28;45445;-86
2021/09/29 05:55:50;;;;;;;;;2.00;0.00;;;;;;;;5061035;28;45268;-86
2021/09/29 05:58:15;;;;;;;;;0.00;0.00;;;;;;;;5072145;28;45487;-87
2021/09/29 06:00:41;;;;;;;;;0.50;0.00;;;;;;;;5060142;28;45544;-86
2021/09/29 06:03:06;;;;;;;;;0.00;0.00;;;;;;;;5077600;28;45525;-87
2021/09/29 06:05:31;;;;;;;;;1.00;0.33;;;;;;;;5081165;28;45484;-87
2021/09/29 06:07:56;;;;;;;;;1.00;0.00;;;;;;;;5084024;27;46905;-87
2021/09/29 06:10:22;;;;;;;;;0.75;0.00;;;;;;;;5082771;27;45462;-86
2021/09/29 06:12:47;;;;;;;;;2.00;0.00;;;;;;;;5086453;27;45332;-87
2021/09/29 06:15:20;;;;;;;;;0.00;0.00;;;;;;;;5065516;27;46047;-86
2021/09/29 06:17:54;;;;;;;;;0.00;0.00;;;;;;;;5087765;27;45549;-86
2021/09/29 06:20:19;;;;;;;;;0.00;0.00;;;;;;;;5075095;28;45466;-86
2021/09/29 06:22:44;;;;;;;;;1.00;0.00;;;;;;;;5092785;27;45582;-86
2021/09/29 06:25:10;;;;;;;;;0.00;0.00;;;;;;;;5061884;28;45436;-87
2021/09/29 06:27:35;;;;;;;;;1.00;0.00;;;;;;;;5073857;27;45557;-86
2021/09/29 06:30:00;;;;;;;;;0.00;0.00;;;;;;;;5080335;27;45476;-86
2021/09/29 06:32:26;;;;;;;;;0.00;0.00;;;;;;;;5091984;27;45347;-85
2021/09/29 06:34:51;;;;;;;;;1.00;1.00;;;;;;;;5095267;27;45324;-87
2021/09/29 06:37:16;;;;;;;;;1.25;0.00;;;;;;;;5081018;27;45339;-87
2021/09/29 06:39:41;;;;;;;;;0.67;0.67;;;;;;;;5080581;28;45498;-86
2021/09/29 06:42:07;;;;;;;;;1.00;1.00;;;;;;;;5071580;27;45272;-86
2021/09/29 06:44:33;;;;;;;;;0.00;0.00;;;;;;;;5090968;27;45659;-89
2021/09/29 06:47:01;;;;;;;;;3.50;1.00;;;;;;;;5090697;27;45235;-86
2021/09/29 06:49:27;;;;;;;;;0.00;0.00;;;;;;;;5064926;27;45958;-86
2021/09/29 06:51:52;;;;;;;;;0.00;0.00;;;;;;;;5091460;27;45563;-87
2021/09/29 06:54:17;;;;;;;;;0.00;0.00;;;;;;;;5100093;27;44784;-88
2021/09/29 06:56:45;;;;;;;;;1.00;0.00;;;;;;;;5102185;27;44754;-86
2021/09/29 06:59:10;;;;;;;;;0.50;0.00;;;;;;;;5078663;27;45551;-87
2021/09/29 07:01:35;;;;;;;;;0.00;0.00;;;;;;;;5051199;27;48287;-87
2021/09/29 07:04:00;;;;;;;;;2.00;0.67;;;;;;;;5060412;28;45590;-87
2021/09/29 07:06:25;;;;;;;;;1.00;0.00;;;;;;;;5070253;27;45313;-87
2021/09/29 07:08:51;;;;;;;;;1.00;0.00;;;;;;;;5093502;27;45398;-87
2021/09/29 07:11:17;;;;;;;;;0.67;0.00;;;;;;;;5068426;27;46479;-86
2021/09/29 07:13:42;;;;;;;;;2.00;0.00;;;;;;;;5077565;27;45632;-87
2021/09/29 07:16:09;;;;;;;;;1.00;0.00;;;;;;;;5065500;27;45336;-86
2021/09/29 07:18:38;;;;;;;;;3.25;0.00;;;;;;;;5065624;28;45565;-85
2021/09/29 07:21:03;;;;;;;;;1.00;1.00;;;;;;;;5088277;27;45589;-85
2021/09/29 07:23:30;;;;;;;;;0.33;0.00;;;;;;;;5057773;28;45716;-85
2021/09/29 07:25:55;;;;;;;;;6.00;1.00;;;;;;;;5074716;27;45488;-84
2021/09/29 07:28:20;;;;;;;;;0.33;0.00;;;;;;;;5093330;27;45382;-85
2021/09/29 07:30:46;;;;;;;;;3.00;0.00;;;;;;;;5088459;27;46621;-86
2021/09/29 07:33:12;;;;;;;;;3.00;2.00;;;;;;;;5059134;28;45407;-85
2021/09/29 07:35:39;;;;;;;;;7.00;1.00;;;;;;;;5057535;28;45415;-86
2021/09/29 07:38:05;;;;;;;;;2.50;1.00;;;;;;;;5078691;27;45326;-85
2021/09/29 07:40:30;;;;;;;;;1.75;0.25;;;;;;;;5061530;28;47293;-86
2021/09/29 07:42:56;;;;;;;;;2.00;1.00;;;;;;;;5051802;28;45962;-86
2021/09/29 07:45:21;;;;;;;;;0.25;0.25;;;;;;;;5077563;28;45315;-86
2021/09/29 07:47:47;;;;;;;;;1.00;1.00;;;;;;;;5057187;27;46125;-86
2021/09/29 07:50:15;;;;;;;;;4.50;0.00;;;;;;;;5082021;27;45413;-86
2021/09/29 07:52:41;;;;;;;;;0.00;0.00;;;;;;;;5087864;27;45461;-86
2021/09/29 07:55:06;;;;;;;;;3.00;0.00;;;;;;;;5053113;27;45515;-86
2021/09/29 07:57:32;;;;;;;;;1.25;0.00;;;;;;;;5084553;27;45620;-86
2021/09/29 07:59:57;;;;;;;;;1.00;1.00;;;;;;;;5077728;27;46495;-87
2021/09/29 08:02:22;;;;;;;;;1.00;1.00;;;;;;;;5079303;27;45450;-86
2021/09/29 08:04:47;;;;;;;;;0.25;0.00;;;;;;;;5059337;28;45399;-87
2021/09/29 08:07:14;;;;;;;;;3.00;1.67;;;;;;;;5053147;28;45973;-87
2021/09/29 08:09:39;;;;;;;;;1.75;1.00;;;;;;;;5050841;28;47145;-88
2021/09/29 08:12:04;;;;;;;;;0.00;0.00;;;;;;;;5071416;28;45489;-87
2021/09/29 08:14:29;;;;;;;;;0.75;0.00;;;;;;;;5070074;28;45343;-87
2021/09/29 08:16:57;;;;;;;;;2.00;0.00;;;;;;;;5063011;28;45459;-87
2021/09/29 08:19:22;;;;;;;;;1.25;1.00;;;;;;;;5060791;28;47065;-87
2021/09/29 08:21:48;;;;;;;;;2.00;1.00;;;;;;;;5046918;28;46203;-87
2021/09/29 08:24:19;;;;;;;;;2.00;1.00;;;;;;;;5036773;28;45532;-87
2021/09/29 08:29:27;;;;;;;;;3.00;2.00;;;;;;;;5038703;28;45452;-87
2021/09/29 08:32:09;;;;;;;;;3.00;1.50;;;;;;;;5039941;28;45876;-87
2021/09/29 08:37:07;;;;;;;;;3.00;1.00;;;;;;;;5038920;28;45522;-88
2021/09/29 08:39:44;;;;;;;;;1.50;0.00;;;;;;;;5040330;28;47342;-88
2021/09/29 08:42:23;;;;;;;;;0.00;0.00;;;;;;;;5037249;28;45407;-88
2021/09/29 08:44:55;;;;;;;;;0.00;0.00;;;;;;;;5039930;28;45593;-88
2021/09/29 08:52:44;;;;;;;;;0.00;0.00;;;;;;;;5045276;28;45273;-85
2021/09/29 09:17:35;;;;;;;;;1.50;0.00;;;;;;;;5041103;28;45481;-86
2021/09/29 09:20:13;;;;;;;;;0.25;0.00;;;;;;;;5039791;28;45500;-88
2021/09/29 09:22:39;;;;;;;;;0.00;0.00;;;;;;;;5069645;28;45390;-88
2021/09/29 09:25:04;;;;;;;;;0.00;0.00;;;;;;;;5062563;28;45280;-88
2021/09/29 09:27:40;;;;;;;;;0.25;0.00;;;;;;;;5081422;28;45327;-87
2021/09/29 09:30:06;;;;;;;;;0.75;0.00;;;;;;;;5082324;28;45280;-87
2021/09/29 09:32:39;;;;;;;;;2.75;0.25;;;;;;;;5065784;28;47203;-88
2021/09/29 09:35:05;;;;;;;;;0.00;0.00;;;;;;;;5083409;28;45297;-87
2021/09/29 09:37:31;;;;;;;;;0.25;0.00;;;;;;;;5081617;28;45411;-88
2021/09/29 09:40:10;;;;;;;;;2.50;1.50;;;;;;;;5081938;28;45251;-85
2021/09/29 09:42:44;;;;;;;;;1.00;1.00;;;;;;;;5080438;28;46525;-83
2021/09/29 09:45:10;;;;;;;;;2.50;1.00;;;;;;;;5076761;28;45523;-83
2021/09/29 09:47:45;;;;;;;;;1.00;1.00;;;;;;;;5061653;28;45494;-83
2021/09/29 09:50:11;;;;;;;;;3.00;1.25;;;;;;;;5077744;28;45358;-84
2021/09/29 09:52:39;;;;;;;;;1.00;1.00;;;;;;;;5079919;28;45492;-83
2021/09/29 09:55:04;;;;;;;;;3.50;1.00;;;;;;;;5061347;28;45682;-83
2021/09/29 09:57:30;;;;;;;;;3.00;1.25;;;;;;;;5076309;28;45439;-84
2021/09/29 09:59:56;;;;;;;;;2.50;2.00;;;;;;;;5080013;28;45497;-84
2021/09/29 10:02:21;;;;;;;;;1.00;0.00;;;;;;;;5080857;28;46474;-83
2021/09/29 10:04:47;;;;;;;;;1.50;0.25;;;;;;;;5060640;28;46347;-83
2021/09/29 10:07:13;;;;;;;;;1.50;0.00;;;;;;;;5077866;28;45565;-84
2021/09/29 10:28:18;;;;;;;;;0.50;0.00;;;;;;;;4973269;28;45317;-84
2021/09/29 10:33:53;;;;;;;;;2.00;1.00;;;;;;;;5037542;28;45581;-85
2021/09/29 10:41:50;;;;;;;;;3.00;1.50;;;;;;;;5081356;28;45437;-84
2021/09/29 10:44:29;;;;;;;;;1.00;1.00;;;;;;;;5090933;28;45675;-89
2021/09/29 10:47:02;;;;;;;;;3.75;2.00;;;;;;;;4396171;28;11666303;-93
2021/09/29 11:32:21;;;;;;;;;2.00;1.00;;;;;;;;5088669;28;45196;-91
2021/09/29 11:34:47;;;;;;;;;1.75;1.50;;;;;;;;5090638;28;45403;-90
2021/09/29 12:10:21;;;;;;;;;2.25;1.00;;;;;;;;5067020;28;45862;-91
2021/09/29 12:12:51;;;;;;;;;4.50;0.75;;;;;;;;5084185;28;45322;-91
2021/09/29 12:15:16;;;;;;;;;0.00;0.00;;;;;;;;5084343;28;45287;-90
2021/09/29 12:17:43;;;;;;;;;3.00;2.00;;;;;;;;5065915;28;45374;-92
2021/09/29 12:20:33;;;;;;;;;2.00;2.00;;;;;;;;5066830;28;45383;-92
2021/09/29 12:23:00;;;;;;;;;1.25;1.00;;;;;;;;5085367;28;45445;-91
2021/09/29 12:25:46;;;;;;;;;0.00;0.00;;;;;;;;5070131;28;45420;-91
2021/09/29 12:31:21;;;;;;;;;2.25;1.75;;;;;;;;5085534;28;46086;-92
2021/09/29 12:36:14;;;;;;;;;1.00;1.00;;;;;;;;5080311;28;45445;-91
2021/09/29 12:38:42;;;;;;;;;1.00;1.00;;;;;;;;5058561;28;45515;-90
2021/09/29 12:41:07;;;;;;;;;1.00;0.25;;;;;;;;5071005;28;45290;-91
2021/09/29 12:43:33;;;;;;;;;0.67;0.67;;;;;;;;5066075;28;46718;-92
2021/09/29 12:45:58;;;;;;;;;4.33;0.00;;;;;;;;5065638;28;45293;-91
2021/09/29 12:48:26;;;;;;;;;0.50;0.50;;;;;;;;5083786;28;45511;-89
2021/09/29 12:56:06;;;;;;;;;1.00;1.00;;;;;;;;5083220;28;45276;-92
2021/09/29 12:58:32;;;;;;;;;2.50;1.00;;;;;;;;5082928;28;45399;-92
2021/09/29 13:00:59;;;;;;;;;1.00;1.00;;;;;;;;5083731;28;45399;-91
2021/09/29 13:03:25;;;;;;;;;1.75;1.00;;;;;;;;5061632;28;47469;-92
2021/09/29 13:05:50;;;;;;;;;2.50;1.00;;;;;;;;5065782;28;45787;-91
2021/09/29 13:08:16;;;;;;;;;2.00;0.00;;;;;;;;5068025;28;45489;-91
2021/09/29 13:10:41;;;;;;;;;1.00;1.00;;;;;;;;5087003;28;45298;-89
2021/09/29 13:13:07;;;;;;;;;2.00;0.00;;;;;;;;5068042;28;47888;-91
2021/09/29 13:15:32;;;;;;;;;0.00;0.00;;;;;;;;5066874;28;45512;-91
2021/09/29 13:17:58;;;;;;;;;3.50;0.75;;;;;;;;5083667;28;45382;-90
2021/09/29 13:20:30;;;;;;;;;0.00;0.00;;;;;;;;5083834;28;45146;-91
2021/09/29 13:22:58;;;;;;;;;0.00;0.00;;;;;;;;5064984;28;47183;-91
2021/09/29 13:36:33;;;;;;;;;0.50;0.50;;;;;;;;5089688;28;45467;-91
2021/09/29 13:38:58;;;;;;;;;1.00;0.25;;;;;;;;5089311;28;44651;-91
2021/09/29 13:41:24;;;;;;;;;1.00;0.00;;;;;;;;5089086;28;45204;-90
2021/09/29 13:43:49;;;;;;;;;0.00;0.00;;;;;;;;5069033;28;48372;-91
2021/09/29 13:46:14;;;;;;;;;2.00;1.00;;;;;;;;5069608;28;45272;-91
2021/09/29 13:48:39;;;;;;;;;3.00;1.75;;;;;;;;5086672;28;45260;-89
2021/09/29 13:51:05;;;;;;;;;7.25;2.25;;;;;;;;5071076;28;45386;-91
2021/09/29 13:53:30;;;;;;;;;1.00;1.00;;;;;;;;5104812;27;47753;-90
2021/09/29 13:55:57;;;;;;;;;1.00;0.00;;;;;;;;5102737;27;45243;-93
2021/09/29 14:30:33;;;;;;;;;0.00;0.00;;;;;;;;5052020;28;45215;-93
2021/09/29 14:33:03;;;;;;;;;2.00;1.00;;;;;;;;5046951;28;45362;-92
2021/09/29 14:35:28;;;;;;;;;0.00;0.00;;;;;;;;5062132;28;47919;-91
2021/09/29 14:37:54;;;;;;;;;4.50;1.00;;;;;;;;5059926;28;45347;-93
2021/09/29 14:40:20;;;;;;;;;2.00;0.75;;;;;;;;5066370;28;45272;-93
2021/09/29 14:42:46;;;;;;;;;1.75;0.75;;;;;;;;5058922;28;45467;-92
2021/09/29 14:45:13;;;;;;;;;5.00;0.00;;;;;;;;5066558;28;47070;-94
2021/09/29 14:47:38;;;;;;;;;2.75;1.00;;;;;;;;5055522;28;45203;-92
2021/09/29 14:50:08;;;;;;;;;0.00;0.00;;;;;;;;5053528;28;45439;-93
2021/09/29 14:52:33;;;;;;;;;2.00;0.00;;;;;;;;5055358;28;45530;-92
2021/09/29 14:54:59;;;;;;;;;1.00;0.00;;;;;;;;5049559;28;47136;-94
2021/09/29 14:57:24;;;;;;;;;0.50;0.50;;;;;;;;5063201;28;44808;-94
2021/09/29 14:59:50;;;;;;;;;0.25;0.25;;;;;;;;5049473;28;45208;-92
2021/09/29 15:02:18;;;;;;;;;0.00;0.00;;;;;;;;5050665;28;45229;-92
2021/09/29 15:04:44;;;;;;;;;1.50;1.00;;;;;;;;5057482;28;47020;-94
2021/09/29 15:07:09;;;;;;;;;0.75;0.00;;;;;;;;5056989;28;45452;-93
2021/09/29 15:09:41;;;;;;;;;2.00;1.00;;;;;;;;5060240;28;44741;-94
2021/09/29 15:12:07;;;;;;;;;1.00;1.00;;;;;;;;5054875;28;45491;-93
2021/09/29 15:15:24;;;;;;;;;0.00;0.00;;;;;;;;5057991;28;47482;-93
2021/09/29 15:17:35;;;;;;;;;1.25;1.00;;;;;;;;5051206;28;45363;-92
2021/09/29 15:47:19;;;;;;;;;2.00;2.00;;;;;;;;5050869;28;45439;-95
2021/09/29 15:52:35;;;;;;;;;2.25;1.00;;;;;;;;5060025;28;45296;-95
2021/09/29 15:55:25;;;;;;;;;1.00;0.00;;;;;;;;5054999;28;45494;-94
2021/09/29 16:03:11;;;;;;;;;1.00;1.00;;;;;;;;5055259;28;45202;-93
2021/09/29 16:08:32;;;;;;;;;0.00;0.00;;;;;;;;5049369;28;45355;-94
2021/09/29 16:34:48;;;;;;;;;1.00;1.00;;;;;;;;5046362;28;45703;-87
2021/09/29 16:37:14;;;;;;;;;2.00;1.00;;;;;;;;5053426;28;45858;-87
2021/09/29 16:39:40;;;;;;;;;1.00;1.00;;;;;;;;5042719;28;46018;-86
2021/09/29 16:42:05;;;;;;;;;5.25;2.00;;;;;;;;5045551;28;45249;-86
2021/09/29 16:44:30;;;;;;;;;1.75;1.00;;;;;;;;5043602;28;45166;-86
2021/09/29 16:46:57;;;;;;;;;3.00;2.00;;;;;;;;5045724;28;45546;-86
2021/09/29 16:49:27;;;;;;;;;2.00;2.00;;;;;;;;5046694;28;47221;-88
2021/09/29 16:52:29;;;;;;;;;4.25;2.00;;;;;;;;5042119;28;45514;-86
2021/09/29 16:54:44;;;;;;;;;2.00;2.00;;;;;;;;5042242;28;45375;-87
2021/09/29 16:57:17;;;;;;;;;6.50;3.00;;;;;;;;5051436;28;45360;-86
2021/09/29 16:59:45;;;;;;;;;2.75;1.00;;;;;;;;5049818;28;47398;-87
2021/09/29 17:02:13;;;;;;;;;2.50;1.25;;;;;;;;5045515;28;45301;-85
2021/09/29 17:04:38;;;;;;;;;3.75;2.00;;;;;;;;5062728;28;45461;-86
2021/09/29 17:07:03;;;;;;;;;3.00;1.67;;;;;;;;5047765;28;45903;-85
2021/09/29 17:09:29;;;;;;;;;3.25;2.00;;;;;;;;5047900;28;48131;-86
2021/09/29 17:11:54;;;;;;;;;2.00;2.00;;;;;;;;5043481;28;45295;-86
2021/09/29 17:14:20;;;;;;;;;1.00;1.00;;;;;;;;5055429;28;45486;-86
2021/09/29 17:16:48;;;;;;;;;2.00;1.00;;;;;;;;5042511;28;45196;-86
2021/09/29 17:19:13;;;;;;;;;4.00;2.25;;;;;;;;5053274;28;46599;-86
2021/09/29 17:21:39;;;;;;;;;4.00;2.00;;;;;;;;5052967;28;45448;-87
2021/09/29 17:24:04;;;;;;;;;7.25;4.00;;;;;;;;5051095;28;45598;-87
2021/09/29 17:26:30;;;;;;;;;2.50;2.50;;;;;;;;5046820;28;45521;-87
2021/09/29 17:29:00;;;;;;;;;6.00;3.25;;;;;;;;5046586;28;47415;-87
2021/09/29 17:31:44;;;;;;;;;2.25;2.25;;;;;;;;5046885;28;45308;-87
2021/09/29 17:34:28;;;;;;;;;2.00;2.00;;;;;;;;5059408;28;45358;-87
2021/09/29 17:52:53;;;;;;;;;3.50;2.75;;;;;;;;5049727;28;45389;-86
2021/09/29 17:55:18;;;;;;;;;5.00;2.00;;;;;;;;5062329;28;44879;-86
2021/09/29 17:57:44;;;;;;;;;2.75;2.75;;;;;;;;5070513;28;45630;-87
2021/09/29 18:00:10;;;;;;;;;7.75;2.00;;;;;;;;5064497;28;44907;-88
2021/09/29 18:02:49;;;;;;;;;7.00;4.00;;;;;;;;5071411;28;44806;-87
2021/09/29 18:05:27;;;;;;;;;4.50;3.00;;;;;;;;5049455;28;45569;-87
2021/09/29 18:07:53;;;;;;;;;2.50;2.50;;;;;;;;5046341;28;45785;-88
2021/09/29 18:10:18;;;;;;;;;5.50;2.25;;;;;;;;5058068;28;48179;-87
2021/09/29 18:12:44;;;;;;;;;3.25;3.25;;;;;;;;5048452;28;45295;-87
2021/09/29 18:15:09;;;;;;;;;5.00;2.00;;;;;;;;5046903;28;45589;-88
2021/09/29 18:17:35;;;;;;;;;4.50;2.75;;;;;;;;5046382;28;45355;-88
2021/09/29 18:20:00;;;;;;;;;2.00;2.00;;;;;;;;5044567;28;47451;-87
2021/09/29 18:22:26;;;;;;;;;5.50;2.00;;;;;;;;5040808;28;45427;-87
2021/09/29 18:24:51;;;;;;;;;3.50;2.50;;;;;;;;5056069;28;45557;-87
2021/09/29 18:27:16;;;;;;;;;3.00;3.00;;;;;;;;5043711;28;45406;-86
2021/09/29 18:29:42;;;;;;;;;8.75;4.00;;;;;;;;5041443;28;48113;-87
2021/09/29 18:32:07;;;;;;;;;2.00;1.50;;;;;;;;5043576;28;45212;-87
2021/09/29 18:34:35;;;;;;;;;5.25;2.25;;;;;;;;5053717;28;45453;-86
2021/09/29 18:37:02;;;;;;;;;4.25;3.00;;;;;;;;5054037;28;45568;-86
2021/09/29 18:39:27;;;;;;;;;7.75;4.75;;;;;;;;5051527;28;48073;-86
2021/09/29 18:41:53;;;;;;;;;6.00;4.00;;;;;;;;5051494;28;45426;-86
2021/09/29 18:44:19;;;;;;;;;3.25;3.25;;;;;;;;5051816;28;45475;-87
2021/09/29 18:46:44;;;;;;;;;7.25;4.50;;;;;;;;5041861;28;45355;-86
2021/09/29 18:49:14;;;;;;;;;7.00;5.75;;;;;;;;5048088;28;48004;-86
2021/09/29 18:51:44;;;;;;;;;5.00;5.00;;;;;;;;5048019;28;45757;-87
2021/09/29 19:09:35;;;;;;;;;4.00;2.75;;;;;;;;5039966;28;45777;-86
2021/09/29 19:12:01;;;;;;;;;3.00;3.00;;;;;;;;5038733;28;45472;-87
2021/09/29 19:14:26;;;;;;;;;5.00;4.00;;;;;;;;5051664;28;45774;-86
2021/09/29 19:16:51;;;;;;;;;4.00;3.00;;;;;;;;5039946;28;45505;-87
2021/09/29 19:19:16;;;;;;;;;7.33;4.00;;;;;;;;5039526;28;47154;-87
2021/09/29 19:21:42;;;;;;;;;6.00;4.00;;;;;;;;5047756;28;45663;-87
2021/09/29 19:24:07;;;;;;;;;5.75;3.75;;;;;;;;5046455;28;45356;-86